EWG7C EDDH-LEPA
Flight info
| Callsign | EWG7C |
|---|---|
| Flight time | N/A |
| Altitude | 23000 |
| Route | IDEKO7G/33 IDEKO N850 PIROT/N0433F370 N850 XAROL/N0432F360 DCT BOMBI DCT GIGET DCT ABUKA DCT KRH DCT NATOR/N0434F370 DCT LUTIX DCT BENOT DCT NEMOS DCT GEVEA DCT INCUS DCT BALSI DCT RETNO DCT TUPOX DCT MTG DCT DIVKO DCT VATIR N852 VERSO L129 LUNIK |
| Aircraft | A320/M-SDE3FGHIRWY/LB1 |
Departure
| Time | N/A |
|---|---|
| Airport | Hamburg Helmut Schmidt Airport (EDDH) |
Arrival
| Time | 2026-05-01 11:33 |
|---|---|
| Airport | Palma de Mallorca Airport (LEPA) |
| Time | Latitude | Longitude | Altitude | Speed | Heading |
|---|---|---|---|---|---|
| 2026-05-01 11:06 | 40.54705 | 3.43567 | 28007 ft | 376 kts | 201° |
| 2026-05-01 11:06 | 40.52228 | 3.42469 | 27695 ft | 375 kts | 199° |
| 2026-05-01 11:07 | 40.47250 | 3.40460 | 27084 ft | 373 kts | 198° |
| 2026-05-01 11:07 | 40.44739 | 3.39631 | 26773 ft | 372 kts | 190° |
| 2026-05-01 11:07 | 40.42157 | 3.39363 | 26510 ft | 373 kts | 180° |
| 2026-05-01 11:07 | 40.39567 | 3.39516 | 26163 ft | 372 kts | 179° |
| 2026-05-01 11:08 | 40.36983 | 3.39675 | 25823 ft | 371 kts | 179° |
| 2026-05-01 11:08 | 40.34449 | 3.39816 | 25485 ft | 369 kts | 179° |
| 2026-05-01 11:08 | 40.29352 | 3.40083 | 24826 ft | 366 kts | 179° |
| 2026-05-01 11:09 | 40.26807 | 3.40221 | 24502 ft | 365 kts | 179° |
| 2026-05-01 11:09 | 40.24269 | 3.40362 | 24173 ft | 364 kts | 178° |
| 2026-05-01 11:09 | 40.21740 | 3.40508 | 23859 ft | 363 kts | 179° |
| 2026-05-01 11:10 | 40.16718 | 3.40795 | 23131 ft | 359 kts | 178° |
| 2026-05-01 11:10 | 40.14266 | 3.40939 | 22791 ft | 357 kts | 178° |
| 2026-05-01 11:10 | 40.11792 | 3.41083 | 22445 ft | 355 kts | 178° |
| 2026-05-01 11:10 | 40.09331 | 3.41220 | 22106 ft | 353 kts | 179° |
| 2026-05-01 11:11 | 40.06885 | 3.41354 | 21769 ft | 351 kts | 178° |
| 2026-05-01 11:11 | 40.04453 | 3.41488 | 21438 ft | 349 kts | 178° |
| 2026-05-01 11:11 | 40.02024 | 3.41619 | 21113 ft | 348 kts | 178° |
| 2026-05-01 11:11 | 39.99617 | 3.41754 | 20784 ft | 346 kts | 178° |
| 2026-05-01 11:12 | 39.97220 | 3.41892 | 20461 ft | 344 kts | 179° |
| 2026-05-01 11:12 | 39.94832 | 3.42029 | 20144 ft | 343 kts | 179° |
| 2026-05-01 11:12 | 39.92451 | 3.42167 | 19830 ft | 341 kts | 179° |
| 2026-05-01 11:12 | 39.90084 | 3.42303 | 19517 ft | 340 kts | 179° |
| 2026-05-01 11:13 | 39.87724 | 3.42434 | 19213 ft | 338 kts | 179° |
| 2026-05-01 11:13 | 39.85408 | 3.42562 | 18910 ft | 337 kts | 179° |
| 2026-05-01 11:13 | 39.83073 | 3.42689 | 18612 ft | 335 kts | 178° |
| 2026-05-01 11:13 | 39.80745 | 3.42818 | 18270 ft | 334 kts | 179° |
| 2026-05-01 11:14 | 39.78258 | 3.42959 | 17867 ft | 333 kts | 179° |
| 2026-05-01 11:14 | 39.76118 | 3.43080 | 17527 ft | 331 kts | 179° |
| 2026-05-01 11:14 | 39.73827 | 3.43131 | 17152 ft | 328 kts | 187° |
| 2026-05-01 11:14 | 39.71636 | 3.42494 | 16798 ft | 324 kts | 203° |
| 2026-05-01 11:15 | 39.69680 | 3.41081 | 16439 ft | 319 kts | 219° |
| 2026-05-01 11:15 | 39.68168 | 3.39090 | 16097 ft | 315 kts | 236° |
| 2026-05-01 11:15 | 39.67087 | 3.36638 | 15750 ft | 312 kts | 245° |
| 2026-05-01 11:15 | 39.66107 | 3.34131 | 15406 ft | 311 kts | 244° |
| 2026-05-01 11:16 | 39.65124 | 3.31645 | 15066 ft | 310 kts | 244° |
| 2026-05-01 11:16 | 39.64138 | 3.29160 | 14730 ft | 309 kts | 244° |
| 2026-05-01 11:16 | 39.63156 | 3.26693 | 14397 ft | 307 kts | 243° |
| 2026-05-01 11:16 | 39.62181 | 3.24241 | 14056 ft | 306 kts | 244° |
| 2026-05-01 11:17 | 39.61210 | 3.21797 | 13709 ft | 305 kts | 243° |
| 2026-05-01 11:17 | 39.60243 | 3.19361 | 13337 ft | 303 kts | 243° |
| 2026-05-01 11:17 | 39.59294 | 3.16968 | 12971 ft | 301 kts | 243° |
| 2026-05-01 11:17 | 39.58342 | 3.14572 | 12621 ft | 300 kts | 243° |
| 2026-05-01 11:18 | 39.57392 | 3.12180 | 12270 ft | 298 kts | 243° |
| 2026-05-01 11:18 | 39.56445 | 3.09800 | 11907 ft | 296 kts | 243° |
| 2026-05-01 11:18 | 39.55504 | 3.07434 | 11571 ft | 295 kts | 243° |
| 2026-05-01 11:18 | 39.54566 | 3.05077 | 11220 ft | 293 kts | 242° |
| 2026-05-01 11:19 | 39.53634 | 3.02737 | 10866 ft | 291 kts | 242° |
| 2026-05-01 11:19 | 39.52705 | 3.00411 | 10540 ft | 289 kts | 242° |
| 2026-05-01 11:19 | 39.51789 | 2.98114 | 10209 ft | 287 kts | 243° |
| 2026-05-01 11:19 | 39.50876 | 2.95830 | 9849 ft | 284 kts | 242° |
| 2026-05-01 11:20 | 39.49991 | 2.93617 | 9488 ft | 274 kts | 242° |
| 2026-05-01 11:20 | 39.49136 | 2.91482 | 9170 ft | 263 kts | 242° |
| 2026-05-01 11:20 | 39.48301 | 2.89396 | 8907 ft | 259 kts | 242° |
| 2026-05-01 11:20 | 39.47476 | 2.87334 | 8651 ft | 258 kts | 242° |
| 2026-05-01 11:21 | 39.46651 | 2.85275 | 8400 ft | 257 kts | 241° |
| 2026-05-01 11:21 | 39.45826 | 2.83221 | 8173 ft | 258 kts | 241° |
| 2026-05-01 11:21 | 39.44999 | 2.81161 | 7952 ft | 258 kts | 241° |
| 2026-05-01 11:21 | 39.44169 | 2.79116 | 7725 ft | 258 kts | 241° |
| 2026-05-01 11:22 | 39.43350 | 2.77078 | 7514 ft | 258 kts | 241° |
| 2026-05-01 11:22 | 39.42529 | 2.75018 | 7295 ft | 258 kts | 241° |
| 2026-05-01 11:22 | 39.41722 | 2.72949 | 7077 ft | 258 kts | 242° |
| 2026-05-01 11:22 | 39.40911 | 2.70880 | 6861 ft | 258 kts | 242° |
| 2026-05-01 11:23 | 39.40101 | 2.68812 | 6652 ft | 258 kts | 242° |
| 2026-05-01 11:23 | 39.39286 | 2.66747 | 6425 ft | 258 kts | 242° |
| 2026-05-01 11:23 | 39.38458 | 2.64716 | 6194 ft | 254 kts | 241° |
| 2026-05-01 11:23 | 39.37633 | 2.62732 | 5934 ft | 248 kts | 241° |
| 2026-05-01 11:24 | 39.36824 | 2.60773 | 5634 ft | 245 kts | 241° |
| 2026-05-01 11:24 | 39.36032 | 2.58832 | 5339 ft | 243 kts | 241° |
| 2026-05-01 11:24 | 39.34494 | 2.55075 | 4737 ft | 229 kts | 241° |
| 2026-05-01 11:25 | 39.33783 | 2.53277 | 4406 ft | 221 kts | 249° |
| 2026-05-01 11:25 | 39.34358 | 2.49804 | 3743 ft | 199 kts | 321° |
| 2026-05-01 11:25 | 39.35526 | 2.49000 | 3558 ft | 189 kts | 350° |
| 2026-05-01 11:26 | 39.36812 | 2.49005 | 3435 ft | 183 kts | 18° |
| 2026-05-01 11:26 | 39.39146 | 2.50260 | 3193 ft | 182 kts | 26° |
| 2026-05-01 11:26 | 39.40308 | 2.50907 | 3064 ft | 182 kts | 26° |
| 2026-05-01 11:27 | 39.41464 | 2.51551 | 2939 ft | 181 kts | 26° |
| 2026-05-01 11:27 | 39.42624 | 2.52198 | 2820 ft | 181 kts | 26° |
| 2026-05-01 11:27 | 39.43766 | 2.52833 | 2694 ft | 182 kts | 26° |
| 2026-05-01 11:27 | 39.44921 | 2.53472 | 2568 ft | 181 kts | 26° |
| 2026-05-01 11:28 | 39.46081 | 2.54122 | 2443 ft | 181 kts | 29° |
| 2026-05-01 11:28 | 39.47065 | 2.55084 | 2314 ft | 178 kts | 51° |
| 2026-05-01 11:28 | 39.47752 | 2.56408 | 2191 ft | 177 kts | 59° |
| 2026-05-01 11:29 | 39.48943 | 2.58905 | 1944 ft | 144 kts | 60° |
| 2026-05-01 11:29 | 39.49450 | 2.59973 | 1878 ft | 137 kts | 60° |
| 2026-05-01 11:29 | 39.49581 | 2.60250 | 1860 ft | 136 kts | 60° |
| 2026-05-01 11:30 | 39.50064 | 2.61267 | 1729 ft | 134 kts | 60° |
| 2026-05-01 11:30 | 39.50554 | 2.62299 | 1575 ft | 133 kts | 60° |
| 2026-05-01 11:30 | 39.51042 | 2.63328 | 1408 ft | 134 kts | 60° |
| 2026-05-01 11:30 | 39.51531 | 2.64357 | 1227 ft | 136 kts | 60° |
| 2026-05-01 11:31 | 39.52024 | 2.65395 | 1057 ft | 135 kts | 62° |
| 2026-05-01 11:31 | 39.52516 | 2.66432 | 851 ft | 135 kts | 59° |
| 2026-05-01 11:31 | 39.53017 | 2.67456 | 686 ft | 134 kts | 58° |
| 2026-05-01 11:31 | 39.53489 | 2.68489 | 541 ft | 132 kts | 59° |
| 2026-05-01 11:32 | 39.53968 | 2.69500 | 359 ft | 133 kts | 59° |
| 2026-05-01 11:32 | 39.54450 | 2.70496 | 181 ft | 132 kts | 60° |
| 2026-05-01 11:32 | 39.54911 | 2.71489 | 48 ft | 124 kts | 61° |
| 2026-05-01 11:32 | 39.55289 | 2.72290 | 36 ft | 92 kts | 58° |
| 2026-05-01 11:33 | 39.55535 | 2.72806 | 36 ft | 42 kts | 58° |
| 2026-05-01 11:33 | 39.55618 | 2.72980 | 38 ft | 16 kts | 58° |
| 2026-05-01 11:33 | 39.55679 | 2.73107 | 37 ft | 17 kts | 58° |
| 2026-05-01 11:33 | 39.55715 | 2.73275 | 38 ft | 23 kts | 88° |
| 2026-05-01 11:34 | 39.55720 | 2.73464 | 38 ft | 19 kts | 89° |
| 2026-05-01 11:34 | 39.55666 | 2.73520 | 38 ft | 12 kts | 218° |
| 2026-05-01 11:34 | 39.55607 | 2.73510 | 36 ft | 10 kts | 146° |